ADDS METAR Data INFO
IDs: Format: Raw Decoded Include TAF

Data at: 0756 UTC 24 May 2018

KRKP 240753Z AUTO 13008KT 10SM SCT013 SCT024 26/24 A3000 RMK AO2 SLP159 T02610239
KRKP 240742Z AUTO 14010KT 10SM SCT015 BKN023 BKN032 27/24 A2999 RMK AO2 T02670239
KRKP 240723Z AUTO 14007KT 10SM SCT015 BKN032 26/24 A3000 RMK AO2 T02610239
KRKP 240708Z AUTO 15007KT 10SM BKN014 26/24 A3001 RMK AO2 T02610239
KRKP 240653Z AUTO 14010KT 9SM SCT015 26/24 A3000 RMK AO2 SLP159 T02610239
KRKP 240553Z AUTO 13009KT 10SM FEW014 SCT031 SCT048 26/24 A3001 RMK AO2 SLP163 T02610239 10283 20261 403110250 51011
KRKP 240542Z AUTO 13010KT 9SM SCT014 SCT022 27/24 A3000 RMK AO2 T02670239
KRKP 240511Z AUTO 12011KT 10SM SCT015 BKN027 27/24 A3000 RMK AO2 T02670239
KRKP 240453Z AUTO 12011KT 10SM SCT015 26/24 A3001 RMK AO2 SLP162 T02610239
KRKP 240353Z AUTO 13012KT 10SM SCT015 26/23 A3000 RMK AO2 SLP158 T02610233
KRKP 240320Z AUTO 12013KT 10SM SCT015 27/23 A2999 RMK AO2 T02670233
KRKP 240253Z AUTO 11012KT 10SM BKN019 BKN024 27/23 A2997 RMK AO2 SLP151 T02670233 51013
KRKP 240242Z AUTO 11012KT 10SM FEW017 BKN024 27/23 A2998 RMK AO2 T02670228
KRKP 240153Z AUTO 11014KT 10SM FEW017 27/23 A2997 RMK AO2 SLP150 T02670228
KRKP 240053Z AUTO 11012KT 9SM FEW017 27/23 A2995 RMK AO2 SLP142 T02720228
KRKP 232353Z AUTO 11012KT 10SM CLR 28/23 A2994 RMK AO2 SLP138 T02830233 10311 20283 56010
KRKP 232253Z AUTO 13012KT 9SM CLR 29/23 A2994 RMK AO2 SLP139 T02940233
KRKP 232153Z AUTO 12013KT 9SM CLR 30/23 A2995 RMK AO2 SLP144 T03000233
KRKP 232053Z AUTO 13011KT 10SM CLR 31/23 A2996 RMK AO2 LTG DSNT N SLP148 T03060233 56010
KRKP 231953Z AUTO 13012KT 10SM CLR 31/23 A2997 RMK AO2 SLP149 T03060228
KRKP 231853Z AUTO 14011KT 10SM CLR 31/23 A2998 RMK AO2 SLP152 T03110233
KRKP 231753Z AUTO 13010KT 10SM CLR 30/23 A3000 RMK AO2 SLP158 T03000228 10311 20256 58001
KRKP 231653Z AUTO 15009KT 10SM SCT021 30/23 A3000 RMK AO2 SLP161 T03000233
KRKP 231553Z AUTO 13009KT 10SM FEW018 30/23 A3001 RMK AO2 SLP165 T03000233
KRKP 231453Z AUTO 12009KT 9SM FEW015 29/23 A3000 RMK AO2 SLP160 T02890233 51015
KRKP 231353Z AUTO 15007KT 9SM FEW015 SCT030 27/23 A2999 RMK AO2 SLP157 T02720233
KRKP 231345Z AUTO 14007KT 9SM FEW015 SCT022 BKN030 27/23 A2999 RMK AO2 T02720233
KRKP 231329Z AUTO 14008KT 9SM SCT013 BKN020 27/23 A2999 RMK AO2 T02720233
KRKP 231253Z AUTO 14008KT 9SM BKN014 27/24 A2997 RMK AO2 SLP150 T02720239
KRKP 231239Z AUTO 14006KT 8SM BKN014 27/24 A2998 RMK AO2 T02670239
KRKP 231153Z AUTO 15010KT 8SM FEW014 26/23 A2996 RMK AO2 SLP145 T02560233 10261 20250 53008
KRKP 231053Z AUTO 14008KT 9SM FEW013 26/23 A2993 RMK AO2 SLP137 T02560233
KRKP 230953Z AUTO 13009KT 10SM FEW013 26/23 A2993 RMK AO2 SLP137 T02560228
KRKP 230853Z AUTO 14008KT 9SM FEW013 26/23 A2993 RMK AO2 SLP137 T02560233 58008
KRKP 230753Z AUTO 15010KT 9SM CLR 26/23 A2995 RMK AO2 SLP142 T02560233
KRKP 230710Z AUTO 14012KT 10SM SCT013 SCT033 26/23 A2995 RMK AO2 T02610233
KRKP 230653Z AUTO 15009KT 9SM BKN013 26/24 A2995 RMK AO2 SLP142 T02610239
KRKP 230646Z AUTO 13009KT 9SM BKN013 26/24 A2995 RMK AO2 T02610239
KRKP 230553Z AUTO 13012KT 10SM FEW014 26/23 A2996 RMK AO2 SLP145 T02560233 10267 20256 403060250 51008
KRKP 230515Z AUTO 13010KT 10SM BKN016 26/23 A2995 RMK AO2 T02610233
KRKP 230453Z AUTO 13009KT 10SM SCT014 26/23 A2995 RMK AO2 SLP144 T02560233
KRKP 230353Z AUTO 12012KT 10SM SCT014 26/23 A2995 RMK AO2 SLP143 T02610233
KRKP 230338Z AUTO 13013KT 10SM SCT014 26/23 A2995 RMK AO2 T02610228
KRKP 230327Z AUTO 12013KT 10SM BKN014 26/23 A2994 RMK AO2 T02610233
KRKP 230253Z AUTO 13011KT 10SM SCT016 26/23 A2993 RMK AO2 SLP137 T02610233 53009
KRKP 230153Z AUTO 14009KT 10SM FEW017 26/23 A2992 RMK AO2 SLP133 T02610228
KRKP 230053Z AUTO 14010KT 10SM CLR 27/22 A2991 RMK AO2 SLP131 T02670222
KRKP 222353Z AUTO 13012KT 10SM CLR 28/22 A2991 RMK AO2 SLP128 T02780222 10306 20278 55007
KRKP 222253Z AUTO 13013KT 10SM FEW019 29/22 A2989 RMK AO2 SLP123 T02890222
KRKP 222153Z AUTO 12014KT 10SM CLR 29/22 A2990 RMK AO2 SLP127 T02940222
KRKP 222053Z AUTO 13012KT 10SM CLR 30/22 A2993 RMK AO2 SLP135 T03000217 56015